Time;durP1;ratioP1;P1;durP2;ratioP2;P2;SDS_P1;SDS_P2;PMS_P1;PMS_P2;Temp;Humidity;BMP_temperature;BMP_pressure;BME280_temperature;BME280_humidity;BME280_pressure;Samples;Min_cycle;Max_cycle;Signal;HPM_P1;HPM_P2
2022/11/28 00:01:30;;;;;;;111.70;61.35;;;;;;;4.47;94.50;101716.41;1813230;78;25546;-80
2022/11/28 00:03:57;;;;;;;113.88;61.90;;;;;;;4.47;94.44;101711.11;1811504;78;25807;-81
2022/11/28 00:06:24;;;;;;;108.45;60.45;;;;;;;4.46;94.39;101708.11;1812035;78;26065;-81
2022/11/28 00:08:51;;;;;;;116.77;62.10;;;;;;;4.44;94.36;101710.04;1814444;78;25933;-79
2022/11/28 00:11:17;;;;;;;112.22;60.28;;;;;;;4.45;94.45;101701.58;1797842;78;28270;-80
2022/11/28 00:13:45;;;;;;;112.42;60.95;;;;;;;4.47;94.44;101701.82;1796533;77;26447;-82
2022/11/28 00:16:23;;;;;;;106.70;58.48;;;;;;;4.47;94.41;101700.49;1798553;77;25532;-80
2022/11/28 00:18:52;;;;;;;104.65;57.73;;;;;;;4.48;94.37;101697.36;1764622;79;26064;-80
2022/11/28 00:21:20;;;;;;;113.52;60.25;;;;;;;4.47;94.28;101702.33;1749054;80;25742;-80
2022/11/28 00:23:47;;;;;;;111.77;59.18;;;;;;;4.44;94.23;101699.91;1753632;80;27456;-80
2022/11/28 00:26:28;;;;;;;108.72;59.45;;;;;;;4.42;94.13;101702.69;1748220;81;25796;-80
2022/11/28 00:28:56;;;;;;;112.80;62.53;;;;;;;4.38;94.11;101695.09;1759039;80;25760;-80
2022/11/28 00:31:28;;;;;;;110.15;59.77;;;;;;;4.35;94.20;101708.10;1763270;79;27349;-80
2022/11/28 00:33:54;;;;;;;113.32;61.05;;;;;;;4.33;94.20;101699.42;1751192;80;25910;-80
2022/11/28 00:36:22;;;;;;;103.15;56.73;;;;;;;4.29;94.18;101693.14;1760507;79;28270;-81
2022/11/28 00:38:50;;;;;;;99.83;58.45;;;;;;;4.26;94.21;101699.52;1751854;81;26127;-80
2022/11/28 00:41:23;;;;;;;101.30;58.42;;;;;;;4.23;94.41;101698.45;1747828;81;26485;-81
2022/11/28 00:43:51;;;;;;;108.92;58.17;;;;;;;4.24;94.66;101690.00;1750474;80;25903;-80
2022/11/28 00:46:19;;;;;;;106.17;58.25;;;;;;;4.26;94.73;101695.55;1746221;81;25758;-80
2022/11/28 00:48:45;;;;;;;107.92;56.42;;;;;;;4.27;94.75;101691.09;1766331;80;27509;-80
2022/11/28 00:51:15;;;;;;;100.18;56.95;;;;;;;4.25;94.57;101688.58;1739100;80;25843;-80
2022/11/28 00:53:44;;;;;;;97.75;54.50;;;;;;;4.22;94.50;101685.30;1752430;80;25729;-80
2022/11/28 00:56:13;;;;;;;98.97;55.48;;;;;;;4.20;94.63;101684.58;1737986;80;26119;-80
2022/11/28 00:58:40;;;;;;;103.53;57.30;;;;;;;4.22;94.84;101686.15;1741425;81;25553;-80
2022/11/28 01:01:14;;;;;;;104.95;56.35;;;;;;;4.25;94.96;101685.92;1767313;79;27440;-80
2022/11/28 01:03:41;;;;;;;104.50;57.17;;;;;;;4.26;94.89;101678.78;1763021;79;26076;-80
2022/11/28 01:06:10;;;;;;;104.45;57.38;;;;;;;4.27;94.84;101681.34;1741452;81;25920;-80
2022/11/28 01:08:37;;;;;;;101.20;58.75;;;;;;;4.27;94.90;101673.39;1764364;79;26242;-80
2022/11/28 01:11:10;;;;;;;101.02;55.85;;;;;;;4.31;94.88;101675.30;1759597;79;26518;-80
2022/11/28 01:13:37;;;;;;;94.87;55.67;;;;;;;4.31;94.86;101675.30;1737939;81;27458;-80
2022/11/28 01:16:04;;;;;;;105.70;56.60;;;;;;;4.32;94.87;101675.68;1751899;79;26417;-80
2022/11/28 01:18:30;;;;;;;104.35;57.85;;;;;;;4.32;94.85;101673.84;1813161;78;25971;-80
2022/11/28 01:20:57;;;;;;;103.15;55.70;;;;;;;4.30;94.72;101663.02;1816000;78;26044;-80
2022/11/28 01:23:23;;;;;;;98.37;58.65;;;;;;;4.28;94.64;101662.27;1808827;78;25778;-80
2022/11/28 01:25:49;;;;;;;98.55;57.25;;;;;;;4.26;94.59;101658.89;1799440;78;27436;-80
2022/11/28 01:28:16;;;;;;;102.17;55.20;;;;;;;4.25;94.70;101666.03;1791122;78;25879;-80
2022/11/28 01:30:42;;;;;;;97.78;54.08;;;;;;;4.23;94.62;101657.36;1804618;78;26163;-80
2022/11/28 01:33:08;;;;;;;101.82;54.98;;;;;;;4.24;94.76;101663.00;1812055;78;26062;-80
2022/11/28 01:35:35;;;;;;;98.87;54.65;;;;;;;4.25;94.77;101649.27;1815755;78;26389;-80
2022/11/28 01:38:01;;;;;;;94.85;54.73;;;;;;;4.27;94.85;101656.62;1812977;78;28698;-80
2022/11/28 01:40:27;;;;;;;102.92;55.85;;;;;;;4.27;94.70;101653.97;1804886;78;25864;-81
2022/11/28 01:42:54;;;;;;;97.67;55.25;;;;;;;4.24;94.52;101650.22;1822175;77;25812;-80
2022/11/28 01:45:28;;;;;;;99.20;55.58;;;;;;;4.22;94.50;101654.33;1787555;78;26453;-80
2022/11/28 01:47:59;;;;;;;113.03;58.75;;;;;;;4.21;94.57;101651.80;1809208;77;25752;-80
2022/11/28 01:50:26;;;;;;;;;;;;;;;4.19;94.52;101646.59;1810025;78;28256;-79
2022/11/28 01:52:56;;;;;;;104.58;54.93;;;;;;;4.19;94.63;101646.59;1810293;78;25765;-80
2022/11/28 01:55:28;;;;;;;102.95;56.48;;;;;;;4.18;94.68;101644.92;1789548;78;32518;-80
2022/11/28 01:57:55;;;;;;;100.12;56.08;;;;;;;4.17;94.66;101640.58;1797952;78;26837;-81
2022/11/28 02:00:22;;;;;;;101.02;55.67;;;;;;;4.17;94.57;101640.58;1806872;78;25792;-80
2022/11/28 02:03:14;;;;;;;104.17;57.60;;;;;;;4.17;94.62;101636.59;1820446;78;27452;-81
2022/11/28 02:05:41;;;;;;;97.72;53.70;;;;;;;4.19;94.63;101635.17;1806683;78;25870;-80
2022/11/28 02:08:08;;;;;;;100.45;53.38;;;;;;;4.19;94.58;101632.52;1798366;78;25960;-80
2022/11/28 02:11:11;;;;;;;96.80;54.00;;;;;;;4.20;94.52;101631.54;1797390;78;26037;-80
2022/11/28 02:13:46;;;;;;;96.82;55.23;;;;;;;4.18;94.41;101629.48;1768282;78;25922;-81
2022/11/28 02:16:45;;;;;;;95.90;54.40;;;;;;;4.18;94.51;101630.34;1737620;81;28770;-82
2022/11/28 02:19:41;;;;;;;102.12;54.35;;;;;;;4.19;94.50;101621.91;1750352;80;26472;-82
2022/11/28 02:22:38;;;;;;;96.10;54.77;;;;;;;4.20;94.51;101626.23;1740015;81;25399;-82
2022/11/28 02:25:37;;;;;;;99.28;55.30;;;;;;;4.18;94.45;101625.04;1747626;80;26071;-81
2022/11/28 02:28:47;;;;;;;97.90;54.98;;;;;;;4.18;94.42;101623.71;1768512;79;25835;-82
2022/11/28 02:32:01;;;;;;;94.07;52.95;;;;;;;4.17;94.31;101625.98;1704138;82;27428;-82
2022/11/28 02:34:45;;;;;;;102.97;53.87;;;;;;;4.16;94.31;101628.77;1714831;81;25908;-81
2022/11/28 02:37:49;;;;;;;95.50;54.98;;;;;;;4.13;94.07;101620.56;1759130;80;25843;-82
2022/11/28 02:40:30;;;;;;;100.80;56.10;;;;;;;4.10;94.08;101619.50;1802381;79;26231;-82
2022/11/28 02:43:00;;;;;;;;;;;;;;;4.09;93.97;101621.78;1803235;79;25340;-82
2022/11/28 02:46:08;;;;;;;95.77;52.40;;;;;;;4.07;93.76;101620.20;1797405;79;27434;-81
2022/11/28 02:48:54;;;;;;;89.28;51.40;;;;;;;4.00;93.71;101617.19;1803803;78;25855;-82
2022/11/28 02:51:35;;;;;;;98.45;53.70;;;;;;;3.97;93.79;101620.09;1792940;78;25282;-82
2022/11/28 02:54:04;;;;;;;96.87;52.93;;;;;;;3.97;93.87;101616.13;1807817;78;26819;-82
2022/11/28 02:56:30;;;;;;;89.83;51.65;;;;;;;3.96;93.77;101608.30;1820217;78;25858;-82
2022/11/28 02:58:57;;;;;;;90.32;50.25;;;;;;;3.96;93.74;101614.42;1809344;78;27449;-82
2022/11/28 03:01:34;;;;;;;92.37;52.25;;;;;;;3.94;93.68;101608.39;1801952;78;26121;-81
2022/11/28 03:04:20;;;;;;;96.75;52.65;;;;;;;3.94;93.63;101612.38;1794394;78;26428;-81
2022/11/28 03:07:22;;;;;;;93.67;52.80;;;;;;;3.93;93.56;101605.40;1815882;78;26837;-81
2022/11/28 03:10:22;;;;;;;96.82;52.27;;;;;;;3.90;93.61;101613.10;1802533;78;26089;-82
2022/11/28 03:12:54;;;;;;;94.37;53.75;;;;;;;3.91;93.81;101602.84;1800818;78;27454;-81
2022/11/28 03:15:25;;;;;;;97.10;51.33;;;;;;;3.93;93.85;101605.40;1809351;77;25672;-82
2022/11/28 03:18:15;;;;;;;92.15;50.92;;;;;;;3.93;93.74;101600.09;1808333;78;25994;-82
2022/11/28 03:20:52;;;;;;;91.32;52.40;;;;;;;3.93;93.60;101604.55;1794514;78;26843;-82
2022/11/28 03:23:32;;;;;;;96.53;54.33;;;;;;;3.89;93.52;101596.83;1824653;78;25587;-82
2022/11/28 03:26:10;;;;;;;93.60;53.77;;;;;;;3.90;93.58;101601.65;1820739;78;28679;-81
2022/11/28 03:28:50;;;;;;;95.35;53.60;;;;;;;3.89;93.54;101599.98;1822711;78;26484;-82
2022/11/28 03:31:33;;;;;;;104.40;56.70;;;;;;;3.86;93.43;101596.23;1804634;78;25866;-82
2022/11/28 03:34:03;;;;;;;95.83;53.87;;;;;;;3.85;93.43;101597.17;1752602;79;26423;-82
2022/11/28 03:36:37;;;;;;;96.63;54.90;;;;;;;3.85;93.43;101598.50;1760028;80;25302;-81
2022/11/28 03:39:08;;;;;;;95.53;51.77;;;;;;;3.82;93.39;101589.48;1722312;81;28288;-81
2022/11/28 03:41:51;;;;;;;94.07;52.45;;;;;;;3.81;93.37;101584.66;1740089;80;25831;-82
2022/11/28 03:44:41;;;;;;;90.95;50.28;;;;;;;3.79;93.28;101593.21;1750720;80;25944;-82
2022/11/28 03:47:08;;;;;;;99.22;55.55;;;;;;;3.78;93.22;101593.34;1769250;79;27255;-81
2022/11/28 03:49:41;;;;;;;93.55;52.67;;;;;;;3.75;93.24;101588.27;1767320;79;25309;-82
2022/11/28 03:52:13;;;;;;;88.00;50.03;;;;;;;3.75;93.29;101586.94;1759747;79;28377;-82
2022/11/28 03:54:56;;;;;;;87.08;50.70;;;;;;;3.74;93.25;101587.92;1753300;79;25293;-82
2022/11/28 03:57:36;;;;;;;91.95;52.17;;;;;;;3.75;93.27;101585.61;1752494;79;26554;-82
2022/11/28 04:00:09;;;;;;;95.55;51.37;;;;;;;3.73;93.18;101588.86;1758997;79;26048;-82
2022/11/28 04:02:54;;;;;;;88.97;51.30;;;;;;;3.73;93.24;101588.39;1774574;79;25996;-82
2022/11/28 04:05:28;;;;;;;86.42;50.85;;;;;;;3.73;93.16;101579.12;1775938;79;27581;-81
2022/11/28 04:08:13;;;;;;;94.40;54.53;;;;;;;3.72;93.19;101583.22;1769275;79;26264;-81
2022/11/28 04:10:53;;;;;;;88.17;52.43;;;;;;;3.72;93.23;101584.04;1771611;79;25788;-81
2022/11/28 04:13:24;;;;;;;87.75;49.10;;;;;;;3.71;93.20;101579.72;1730354;81;25767;-82
2022/11/28 04:16:02;;;;;;;96.92;50.80;;;;;;;3.71;93.07;101578.87;1773901;79;25750;-82
2022/11/28 04:19:00;;;;;;;93.78;49.88;;;;;;;3.68;92.89;101583.06;1765673;79;27461;-82
2022/11/28 04:21:53;;;;;;;91.60;49.67;;;;;;;3.68;93.02;101579.09;1759098;79;25775;-82
2022/11/28 04:24:24;;;;;;;84.15;48.52;;;;;;;3.66;92.96;101573.08;1758893;79;25825;-81
2022/11/28 04:27:01;;;;;;;85.95;50.75;;;;;;;3.65;92.96;101580.67;1788932;79;26944;-82
2022/11/28 04:29:33;;;;;;;90.97;50.38;;;;;;;3.64;92.98;101575.85;1755800;79;25593;-82
2022/11/28 04:32:02;;;;;;;92.78;49.77;;;;;;;3.65;92.99;101582.00;1754663;81;28286;-82
2022/11/28 04:34:32;;;;;;;88.10;51.37;;;;;;;3.65;92.89;101574.05;1751057;80;26171;-82
2022/11/28 04:37:00;;;;;;;96.10;51.88;;;;;;;3.63;92.66;101581.28;1760666;79;26611;-82
2022/11/28 04:39:30;;;;;;;94.13;54.45;;;;;;;3.61;92.58;101584.53;1724302;80;26066;-82
2022/11/28 04:42:10;;;;;;;100.97;56.95;;;;;;;3.58;92.53;101579.45;1751746;81;25900;-82
2022/11/28 04:45:00;;;;;;;102.47;58.17;;;;;;;3.58;92.45;101578.12;1758059;81;27538;-82
2022/11/28 04:47:26;;;;;;;91.70;50.15;;;;;;;3.54;92.24;101580.66;1730903;81;25742;-82
2022/11/28 04:49:53;;;;;;;95.47;51.92;;;;;;;3.50;92.21;101580.05;1777416;79;26047;-81
2022/11/28 04:52:39;;;;;;;94.40;52.17;;;;;;;3.48;92.19;101579.80;1766061;79;26069;-82
2022/11/28 04:55:38;;;;;;;94.35;52.65;;;;;;;3.45;92.16;101581.35;1777023;79;25859;-82
2022/11/28 04:58:16;;;;;;;96.65;51.25;;;;;;;3.41;92.29;101574.12;1779222;79;27472;-81
2022/11/28 05:00:44;;;;;;;85.55;47.90;;;;;;;3.41;92.31;101576.78;1780336;79;26241;-82
2022/11/28 05:03:11;;;;;;;85.97;48.25;;;;;;;3.37;92.33;101572.68;1769817;79;25264;-82
2022/11/28 05:05:45;;;;;;;85.85;49.08;;;;;;;3.36;92.33;101574.95;1757070;81;26830;-83
2022/11/28 05:08:11;;;;;;;90.30;51.13;;;;;;;3.35;92.33;101577.25;1734296;81;26464;-82
2022/11/28 05:10:38;;;;;;;87.33;49.33;;;;;;;3.34;92.39;101578.20;1764811;79;27444;-83
2022/11/28 05:13:04;;;;;;;88.47;50.55;;;;;;;3.32;92.38;101566.03;1767777;79;26195;-82
2022/11/28 05:15:31;;;;;;;83.67;47.78;;;;;;;3.31;92.56;101572.30;1741549;81;25868;-82
2022/11/28 05:17:57;;;;;;;96.10;52.45;;;;;;;3.34;92.65;101570.25;1774785;79;26513;-82
2022/11/28 05:20:23;;;;;;;85.07;49.35;;;;;;;3.34;92.63;101573.38;1762750;80;25901;-81
2022/11/28 05:22:50;;;;;;;86.87;50.00;;;;;;;3.32;92.58;101566.88;1737990;80;27459;-82
2022/11/28 05:25:16;;;;;;;88.30;47.67;;;;;;;3.31;92.63;101572.30;1760740;80;25753;-81
2022/11/28 05:27:43;;;;;;;94.70;52.20;;;;;;;3.30;92.64;101567.48;1759150;80;25920;-81
2022/11/28 05:30:10;;;;;;;96.17;54.30;;;;;;;3.31;92.77;101574.95;1736517;80;26084;-82
2022/11/28 05:32:37;;;;;;;110.20;59.38;;;;;;;3.30;92.87;101570.13;1734393;80;25828;-82
2022/11/28 05:35:04;;;;;;;105.15;60.80;;;;;;;3.33;92.99;101578.32;1753829;81;27495;-82
2022/11/28 05:37:31;;;;;;;123.42;65.15;;;;;;;3.34;93.00;101565.43;1751805;80;25892;-82
2022/11/28 05:39:58;;;;;;;135.37;70.70;;;;;;;3.35;92.98;101572.43;1757321;79;25824;-81
2022/11/28 05:42:29;;;;;;;120.95;67.12;;;;;;;3.36;93.01;101575.45;1764830;79;26848;-81
2022/11/28 05:44:55;;;;;;;133.82;73.17;;;;;;;3.35;93.07;101567.98;1759155;79;25918;-82
2022/11/28 05:47:22;;;;;;;123.90;68.17;;;;;;;3.36;93.07;101584.22;1772007;79;28256;-82
2022/11/28 05:49:49;;;;;;;113.25;65.10;;;;;;;3.36;93.19;101572.81;1762758;79;26202;-82
2022/11/28 05:52:15;;;;;;;112.22;63.42;;;;;;;3.37;93.20;101570.50;1762676;79;25750;-81
2022/11/28 05:54:41;;;;;;;111.65;63.52;;;;;;;3.39;93.32;101571.23;1765400;79;26458;-81
2022/11/28 05:57:07;;;;;;;104.25;57.10;;;;;;;3.39;93.39;101569.44;1761954;79;25740;-81
2022/11/28 05:59:35;;;;;;;98.00;57.10;;;;;;;3.41;93.40;101569.31;1762000;79;28475;-82
2022/11/28 06:02:01;;;;;;;90.12;52.38;;;;;;;3.39;93.24;101572.55;1765154;79;26129;-81
2022/11/28 06:04:27;;;;;;;95.67;53.87;;;;;;;3.39;93.23;101575.20;1763952;79;26597;-82
2022/11/28 06:06:54;;;;;;;98.92;52.15;;;;;;;3.38;93.13;101574.86;1762519;79;26081;-81
2022/11/28 06:09:20;;;;;;;100.78;57.33;;;;;;;3.37;93.23;101568.70;1730048;81;26550;-82
2022/11/28 06:11:46;;;;;;;109.97;58.95;;;;;;;3.37;93.11;101572.68;1750312;80;27464;-82
2022/11/28 06:14:13;;;;;;;121.37;63.52;;;;;;;3.35;93.08;101566.66;1749584;80;25812;-81
2022/11/28 06:16:41;;;;;;;124.85;64.92;;;;;;;3.35;93.16;101565.81;1738097;81;25906;-82
2022/11/28 06:19:11;;;;;;;122.72;66.05;;;;;;;3.31;93.16;101562.56;1768165;79;26096;-82
2022/11/28 06:21:37;;;;;;;126.02;66.87;;;;;;;3.32;93.21;101570.00;1765505;79;26133;-82
2022/11/28 06:24:04;;;;;;;113.08;61.50;;;;;;;3.32;93.33;101571.33;1746300;81;27440;-82
2022/11/28 06:26:30;;;;;;;112.17;61.55;;;;;;;3.33;93.27;101567.73;1753235;81;26398;-81
2022/11/28 06:28:57;;;;;;;114.55;62.93;;;;;;;3.35;93.34;101571.95;1742799;81;25420;-81
2022/11/28 06:31:29;;;;;;;103.20;58.35;;;;;;;3.34;93.24;101566.75;1763092;79;26076;-81
2022/11/28 06:33:57;;;;;;;103.67;56.83;;;;;;;3.35;93.21;101564.48;1763046;79;26162;-82
2022/11/28 06:36:25;;;;;;;107.37;61.35;;;;;;;3.35;93.24;101563.16;1763831;79;27458;-82
2022/11/28 06:38:52;;;;;;;102.42;56.75;;;;;;;3.35;93.26;101565.34;1763786;79;25683;-82
2022/11/28 06:41:20;;;;;;;97.37;55.38;;;;;;;3.33;93.19;101569.91;1773703;79;25942;-82
2022/11/28 06:43:46;;;;;;;89.92;54.98;;;;;;;3.31;93.09;101565.20;1763191;79;26085;-82
2022/11/28 06:46:16;;;;;;;97.82;55.60;;;;;;;3.30;93.11;101566.63;1741927;81;25825;-81
2022/11/28 06:48:45;;;;;;;93.87;52.47;;;;;;;3.29;93.15;101561.84;1760367;80;27677;-82
2022/11/28 06:51:12;;;;;;;94.65;56.08;;;;;;;3.29;93.16;101560.98;1737227;81;25929;-82
2022/11/28 06:53:39;;;;;;;95.30;54.58;;;;;;;3.30;93.18;101570.59;1759327;79;25849;-82
2022/11/28 06:56:12;;;;;;;99.22;58.05;;;;;;;3.29;93.24;101563.16;1754420;81;26376;-83
2022/11/28 06:58:40;;;;;;;103.27;58.80;;;;;;;3.30;93.35;101566.63;1759609;79;25812;-82
2022/11/28 07:01:16;;;;;;;101.78;60.65;;;;;;;3.32;93.36;101560.73;1756693;79;27531;-81
2022/11/28 07:03:43;;;;;;;96.95;59.30;;;;;;;3.35;93.46;101568.45;1741714;81;25864;-81
2022/11/28 07:06:11;;;;;;;112.20;65.15;;;;;;;3.36;93.57;101569.66;1755067;79;25778;-82
2022/11/28 07:08:40;;;;;;;97.08;52.53;;;;;;;3.38;93.81;101569.05;1746579;81;26070;-82
2022/11/28 07:11:14;;;;;;;91.35;52.80;;;;;;;3.39;93.92;101573.41;1755886;81;25884;-81
2022/11/28 07:13:42;;;;;;;90.40;50.38;;;;;;;3.38;94.03;101566.41;1749623;80;28497;-81
2022/11/28 07:16:22;;;;;;;102.32;65.42;;;;;;;3.39;94.10;101572.08;1753382;79;26308;-81
2022/11/28 07:18:49;;;;;;;115.72;58.38;;;;;;;3.38;94.17;101570.88;1760604;79;26489;-82
2022/11/28 07:21:16;;;;;;;123.82;62.23;;;;;;;3.38;94.22;101574.35;1765196;79;26844;-82
2022/11/28 07:23:44;;;;;;;111.90;61.50;;;;;;;3.37;94.13;101568.70;1765572;79;25399;-82
2022/11/28 07:26:13;;;;;;;123.55;63.87;;;;;;;3.34;94.23;101566.75;1766883;79;28047;-81
2022/11/28 07:28:41;;;;;;;128.95;62.78;;;;;;;3.33;94.29;101569.91;1755565;79;25933;-81
2022/11/28 07:31:18;;;;;;;105.85;56.60;;;;;;;3.32;94.42;101568.20;1753192;79;25846;-82
2022/11/28 07:33:48;;;;;;;104.58;56.20;;;;;;;3.33;94.59;101564.61;1751945;80;26982;-82
2022/11/28 07:36:19;;;;;;;111.37;58.00;;;;;;;3.33;94.61;101566.41;1756026;81;25900;-81
2022/11/28 07:38:52;;;;;;;102.53;54.03;;;;;;;3.35;94.71;101567.12;1755279;80;27549;-81
2022/11/28 07:41:21;;;;;;;102.27;53.40;;;;;;;3.35;94.81;101564.48;1765529;79;26207;-82
2022/11/28 07:43:51;;;;;;;116.20;59.80;;;;;;;3.34;94.62;101563.63;1768431;79;25740;-82
2022/11/28 07:46:18;;;;;;;121.85;62.67;;;;;;;3.33;94.74;101569.05;1767388;79;26157;-81
2022/11/28 07:48:46;;;;;;;107.20;56.45;;;;;;;3.36;94.92;101560.89;1776537;79;25955;-81
2022/11/28 07:51:18;;;;;;;111.52;58.63;;;;;;;3.40;94.90;101569.78;1763821;79;27312;-81
2022/11/28 07:53:45;;;;;;;106.45;57.45;;;;;;;3.38;94.77;101562.94;1733408;81;25943;-82
2022/11/28 07:56:15;;;;;;;92.35;51.18;;;;;;;3.38;94.81;101565.08;1728024;81;25820;-82
2022/11/28 07:58:45;;;;;;;91.02;51.13;;;;;;;3.39;94.94;101564.61;1741510;80;27410;-82
2022/11/28 08:01:24;;;;;;;86.80;48.00;;;;;;;3.43;94.98;101568.23;1740631;81;25525;-81
2022/11/28 08:03:52;;;;;;;88.07;48.17;;;;;;;3.46;94.97;101560.06;1758862;79;28137;-82
2022/11/28 08:06:23;;;;;;;87.22;47.50;;;;;;;3.47;94.90;101557.77;1773334;79;25178;-81
2022/11/28 08:08:52;;;;;;;86.42;48.73;;;;;;;3.47;94.91;101567.03;1741293;81;25720;-91
2022/11/28 08:11:20;;;;;;;86.78;48.75;;;;;;;3.46;94.80;101564.04;1733943;80;26356;-89
2022/11/28 08:13:56;;;;;;;77.60;47.20;;;;;;;3.46;94.83;101559.22;1740931;81;26168;-95
2022/11/28 08:16:26;;;;;;;86.60;46.05;;;;;;;3.45;94.90;101560.16;1734938;81;27442;-89
2022/11/28 08:18:53;;;;;;;77.62;46.60;;;;;;;3.46;95.01;101565.84;1767416;79;25340;-84
2022/11/28 08:21:35;;;;;;;81.20;45.03;;;;;;;3.47;95.15;101563.53;1753778;80;25846;-90
2022/11/28 08:24:06;;;;;;;78.07;45.75;;;;;;;3.49;95.23;101565.11;1749161;81;26255;-91
2022/11/28 08:26:34;;;;;;;81.97;45.73;;;;;;;3.50;95.13;101561.52;1736582;81;25614;-89
2022/11/28 08:29:01;;;;;;;81.12;46.28;;;;;;;3.50;95.15;101559.34;1749093;80;27451;-82
2022/11/28 08:31:35;;;;;;;80.03;46.65;;;;;;;3.50;95.24;101560.66;1756789;80;25953;-82
2022/11/28 08:34:06;;;;;;;82.30;46.37;;;;;;;3.52;95.28;101558.73;1751669;80;25876;-81
2022/11/28 08:36:32;;;;;;;83.62;47.43;;;;;;;3.49;95.22;101554.98;1761703;79;26054;-81
2022/11/28 08:39:00;;;;;;;83.47;48.15;;;;;;;3.49;95.36;101554.52;1761045;79;26011;-82
2022/11/28 08:41:26;;;;;;;87.90;46.85;;;;;;;3.52;95.56;101551.64;1764862;79;27449;-82
2022/11/28 08:43:52;;;;;;;85.07;48.40;;;;;;;3.51;95.48;101552.59;1763643;81;25923;-82
2022/11/28 08:46:21;;;;;;;138.00;64.03;;;;;;;3.55;95.73;101554.54;1757927;79;25873;-82
2022/11/28 08:48:50;;;;;;;205.50;82.60;;;;;;;3.59;95.88;101550.69;1792145;78;26071;-82
2022/11/28 08:51:22;;;;;;;138.65;64.22;;;;;;;3.64;95.99;101551.16;1809951;78;26357;-82
2022/11/28 08:53:49;;;;;;;124.22;59.58;;;;;;;3.66;95.91;101547.91;1808540;78;27463;-82
2022/11/28 08:56:16;;;;;;;101.35;54.88;;;;;;;3.66;95.80;101549.23;1787973;78;26210;-82
2022/11/28 08:58:43;;;;;;;112.57;55.90;;;;;;;3.68;95.94;101549.48;1790604;78;25590;-81
2022/11/28 09:01:22;;;;;;;94.42;51.33;;;;;;;3.70;95.96;101554.17;1763260;79;26631;-92
2022/11/28 09:03:49;;;;;;;122.05;63.33;;;;;;;3.71;95.93;101549.25;1753820;80;25903;-87
2022/11/28 09:06:17;;;;;;;101.53;58.45;;;;;;;3.72;95.98;101542.16;1743940;81;27467;-86
2022/11/28 09:08:44;;;;;;;104.17;58.48;;;;;;;3.74;96.13;101537.06;1760233;79;25880;-85
2022/11/28 09:11:13;;;;;;;97.80;55.15;;;;;;;3.79;96.14;101542.02;1753221;81;25713;-86
2022/11/28 09:13:39;;;;;;;109.03;58.30;;;;;;;3.79;95.99;101545.98;1759167;79;26032;-83
2022/11/28 09:16:07;;;;;;;113.88;60.35;;;;;;;3.77;96.01;101538.64;1775032;79;25563;-87
2022/11/28 09:18:33;;;;;;;87.40;51.05;;;;;;;3.79;96.22;101540.21;1773852;79;27542;-85
2022/11/28 09:21:03;;;;;;;93.58;53.05;;;;;;;3.79;96.10;101535.39;1751659;79;25877;-86
2022/11/28 09:23:30;;;;;;;82.73;48.60;;;;;;;3.79;96.13;101536.71;1773667;79;25819;-86
2022/11/28 09:25:56;;;;;;;91.57;53.35;;;;;;;3.79;96.09;101540.69;1765450;79;26083;-86
2022/11/28 09:28:27;;;;;;;94.05;52.27;;;;;;;3.78;96.19;101539.02;1764636;79;26158;-90
2022/11/28 09:31:02;;;;;;;93.80;51.75;;;;;;;3.80;96.31;101535.77;1748065;79;26237;-86
2022/11/28 09:33:28;;;;;;;89.32;50.50;;;;;;;3.81;96.22;101534.78;1763947;79;25789;-85
2022/11/28 09:35:54;;;;;;;88.47;51.13;;;;;;;3.83;96.34;101531.05;1745044;79;25837;-84
2022/11/28 09:38:24;;;;;;;89.32;49.45;;;;;;;3.85;96.19;101522.97;1735568;81;26901;-86
2022/11/28 09:40:51;;;;;;;89.15;48.98;;;;;;;3.87;96.47;101525.05;1764189;80;25299;-85
2022/11/28 09:43:41;;;;;;;87.92;49.53;;;;;;;3.90;96.52;101525.64;1744015;79;27456;-82
2022/11/28 09:46:17;;;;;;;86.35;51.10;;;;;;;3.93;96.41;101518.41;1751693;81;25326;-96
2022/11/28 09:48:53;;;;;;;86.95;49.55;;;;;;;3.99;96.62;101517.44;1757987;79;25307;-80
2022/11/28 09:51:34;;;;;;;84.45;47.50;;;;;;;4.03;96.72;101516.70;1764578;79;26072;-80
2022/11/28 09:54:16;;;;;;;;;;;;;;;4.09;96.90;101518.85;1759736;79;25358;-80
2022/11/28 09:56:47;;;;;;;78.65;44.60;;;;;;;4.10;96.49;101515.25;1802306;78;27515;-80
2022/11/28 09:59:24;;;;;;;76.25;44.23;;;;;;;4.09;96.53;101509.10;1765357;81;25287;-79
2022/11/28 10:02:14;;;;;;;85.30;46.00;;;;;;;4.13;96.60;101509.21;1762500;79;25891;-80
2022/11/28 10:04:49;;;;;;;86.12;46.73;;;;;;;4.13;96.39;101506.56;1767624;79;27041;-80
2022/11/28 10:10:29;;;;;;;80.35;44.85;;;;;;;4.29;96.62;101500.87;1848100;75;25508;-85
2022/11/28 10:13:17;;;;;;;83.10;44.15;;;;;;;4.27;96.52;101494.85;1807753;77;26461;-85
2022/11/28 10:16:09;;;;;;;76.12;44.90;;;;;;;4.30;96.47;101494.11;1812588;77;29154;-83
2022/11/28 10:18:44;;;;;;;77.47;42.13;;;;;;;4.33;96.43;101484.59;1814386;77;26223;-82
2022/11/28 10:21:41;;;;;;;73.75;40.40;;;;;;;4.34;96.23;101482.28;1826801;77;25340;-88
2022/11/28 10:24:30;;;;;;;;;;;;;;;;;;;;;
2022/11/28 10:27:02;;;;;;;67.03;38.13;;;;;;;4.40;96.38;101482.28;1765566;77;26013;-90
2022/11/28 10:29:51;;;;;;;67.00;36.85;;;;;;;4.46;96.29;101479.11;1806313;78;27432;-79
2022/11/28 10:32:23;;;;;;;71.95;38.92;;;;;;;4.49;96.42;101482.86;1757971;79;25847;-80
2022/11/28 10:35:00;;;;;;;86.32;45.85;;;;;;;4.52;96.07;101481.25;1769393;79;25762;-81
2022/11/28 10:37:30;;;;;;;84.42;45.50;;;;;;;4.53;96.10;101483.77;1760427;79;25768;-79
2022/11/28 10:40:14;;;;;;;79.27;42.33;;;;;;;4.57;96.19;101472.44;1768629;80;26235;-78
2022/11/28 10:42:49;;;;;;;72.55;40.17;;;;;;;4.59;95.91;101480.64;1676238;82;28307;-81
2022/11/28 10:45:35;;;;;;;77.32;43.85;;;;;;;4.64;96.00;101473.63;1760661;79;26387;-80
2022/11/28 10:48:16;;;;;;;67.42;36.88;;;;;;;4.67;96.12;101476.02;1774033;79;25517;-88
2022/11/28 10:51:03;;;;;;;67.72;35.38;;;;;;;4.67;95.76;101467.58;1772303;79;25608;-94
2022/11/28 10:53:54;;;;;;;58.95;32.75;;;;;;;4.72;95.79;101472.98;1708694;81;26293;-90
2022/11/28 10:56:41;;;;;;;60.17;31.68;;;;;;;4.72;95.52;101463.69;1729814;82;27539;-86
2022/11/28 10:59:52;;;;;;;63.20;33.78;;;;;;;4.69;95.26;101466.11;1725193;79;26581;-88
2022/11/28 11:02:36;;;;;;;64.55;33.75;;;;;;;4.69;95.33;101460.80;1762547;79;25564;-84
2022/11/28 11:05:05;;;;;;;71.45;38.48;;;;;;;4.72;95.55;101459.23;1777511;79;25379;-84
2022/11/28 11:07:33;;;;;;;72.70;42.45;;;;;;;4.78;95.83;101461.84;1773881;79;25318;-83
2022/11/28 11:10:16;;;;;;;67.30;37.20;;;;;;;4.83;95.98;101464.48;1797082;78;27614;-82
2022/11/28 11:12:43;;;;;;;68.70;35.73;;;;;;;4.85;95.90;101459.04;1754971;80;25883;-82
2022/11/28 11:15:23;;;;;;;67.08;35.70;;;;;;;4.87;95.75;101455.29;1789658;80;26323;-85
2022/11/28 11:17:50;;;;;;;66.47;37.23;;;;;;;4.87;95.47;101464.58;1771016;79;26393;-82
2022/11/28 11:20:36;;;;;;;70.57;40.05;;;;;;;4.83;95.23;101459.66;1758013;81;25852;-83
2022/11/28 11:23:19;;;;;;;66.92;37.75;;;;;;;4.85;95.44;101463.02;1784646;80;27439;-80
2022/11/28 11:25:54;;;;;;;71.05;37.53;;;;;;;4.87;95.46;101465.91;1794644;78;25983;-90
2022/11/28 11:28:38;;;;;;;73.00;42.83;;;;;;;4.88;95.45;101460.94;1750520;80;26347;-82
2022/11/28 11:31:15;;;;;;;65.62;35.80;;;;;;;4.88;95.31;101469.38;1765491;80;25787;-80
2022/11/28 11:33:42;;;;;;;64.97;34.90;;;;;;;4.90;95.40;101467.47;1752721;80;25840;-85
2022/11/28 11:36:26;;;;;;;63.35;33.40;;;;;;;4.92;95.36;101469.51;1778532;79;28238;-86
2022/11/28 11:39:13;;;;;;;64.90;34.90;;;;;;;4.93;95.19;101457.90;1797440;78;25981;-80
2022/11/28 11:41:45;;;;;;;74.55;38.15;;;;;;;4.92;95.20;101453.58;1754668;80;25592;-88
2022/11/28 11:44:20;;;;;;;61.25;32.08;;;;;;;4.93;95.21;101456.09;1766962;79;25636;-89
2022/11/28 11:47:15;;;;;;;82.82;38.67;;;;;;;4.93;95.01;101456.09;1782822;78;25320;-93
2022/11/28 11:49:48;;;;;;;62.23;32.05;;;;;;;4.94;94.79;101458.27;1774786;78;26359;-88